Time,TemperatureF,DewpointF,PressureIn,WindDirection,WindDirectionDegrees,WindSpeedMPH,WindSpeedGustMPH,Humidity,HourlyPrecipIn,Conditions,Clouds,dailyrainin,SoftwareType,DateUTC
2013-03-10 00:01:00,41.0,35.0,29.87,SSE,158,3.0,4.0,79,0.00,,,0.00,,2013-03-10 06:01:00,
2013-03-10 00:11:00,41.0,35.0,29.87,SSE,158,3.0,4.0,79,0.00,,,0.00,,2013-03-10 06:11:00,
2013-03-10 00:22:00,41.0,35.0,29.86,SSE,156,3.0,5.0,80,0.00,,,0.00,,2013-03-10 06:22:00,
2013-03-10 00:32:00,41.0,35.0,29.86,SSE,151,0.0,5.0,79,0.00,,,0.00,,2013-03-10 06:32:00,
2013-03-10 00:42:00,41.0,35.0,29.86,SSE,151,0.0,5.0,79,0.00,,,0.00,,2013-03-10 06:42:00,
2013-03-10 00:51:00,41.0,35.0,29.86,SSE,151,0.0,2.0,80,0.00,,,0.00,,2013-03-10 06:51:00,
2013-03-10 01:02:00,42.0,36.0,29.85,SSE,148,0.0,3.0,79,0.00,,,0.00,,2013-03-10 07:02:00,
2013-03-10 01:11:00,42.0,36.0,29.85,SSE,148,0.0,3.0,79,0.00,,,0.00,,2013-03-10 07:11:00,
2013-03-10 01:21:00,42.0,36.0,29.85,SSE,150,2.0,4.0,79,0.00,,,0.00,,2013-03-10 07:21:00,
2013-03-10 01:31:00,42.0,36.0,29.85,SE,129,1.0,4.0,79,0.00,,,0.00,,2013-03-10 07:31:00,
2013-03-10 01:42:00,42.0,36.0,29.84,SE,138,1.0,3.0,79,0.00,,,0.00,,2013-03-10 07:42:00,
2013-03-10 01:52:00,42.0,36.0,29.84,SE,138,1.0,3.0,79,0.00,,,0.00,,2013-03-10 07:52:00,
2013-03-10 03:01:00,43.0,37.0,29.84,SE,137,2.0,4.0,80,0.00,,,0.00,,2013-03-10 08:01:00,
2013-03-10 03:11:00,43.0,37.0,29.84,SE,137,2.0,4.0,80,0.00,,,0.00,,2013-03-10 08:11:00,
2013-03-10 03:21:00,44.0,37.0,29.83,South,169,3.0,5.0,77,0.00,,,0.00,,2013-03-10 08:21:00,
2013-03-10 03:31:00,48.0,38.0,29.83,SSW,202,6.0,11.0,69,0.00,,,0.00,,2013-03-10 08:31:00,
2013-03-10 03:42:00,48.0,38.0,29.83,SSW,202,6.0,11.0,69,0.00,,,0.00,,2013-03-10 08:42:00,
2013-03-10 03:51:00,49.0,38.0,29.83,SW,219,7.0,12.0,66,0.00,,,0.00,,2013-03-10 08:51:00,
2013-03-10 04:01:00,50.0,39.0,29.83,South,188,6.0,15.0,65,0.00,,,0.00,,2013-03-10 09:01:00,
2013-03-10 04:11:00,50.0,39.0,29.83,South,188,6.0,15.0,65,0.00,,,0.00,,2013-03-10 09:11:00,
2013-03-10 04:21:00,50.0,38.0,29.82,SSW,200,9.0,15.0,64,0.00,,,0.00,,2013-03-10 09:21:00,
2013-03-10 04:31:00,50.0,38.0,29.82,SW,224,4.0,11.0,64,0.00,,,0.00,,2013-03-10 09:31:00,
2013-03-10 04:41:00,50.0,38.0,29.82,SW,224,4.0,11.0,64,0.00,,,0.00,,2013-03-10 09:41:00,
2013-03-10 04:51:00,48.0,38.0,29.83,NNE,31,2.0,7.0,69,0.00,,,0.00,,2013-03-10 09:51:00,
2013-03-10 05:01:00,43.0,37.0,29.85,NNE,21,3.0,5.0,78,0.00,,,0.00,,2013-03-10 10:01:00,
2013-03-10 05:11:00,43.0,37.0,29.85,NNE,21,3.0,5.0,78,0.00,,,0.00,,2013-03-10 10:11:00,
2013-03-10 05:21:00,40.0,36.0,29.85,NNE,24,1.0,4.0,84,0.00,,,0.00,,2013-03-10 10:21:00,
2013-03-10 05:32:00,40.0,36.0,29.86,NNE,20,0.0,2.0,86,0.00,,,0.00,,2013-03-10 10:32:00,
2013-03-10 05:42:00,40.0,36.0,29.86,NNW,336,0.0,1.0,87,0.00,,,0.00,,2013-03-10 10:42:00,
2013-03-10 05:52:00,40.0,36.0,29.86,NNW,336,0.0,1.0,87,0.00,,,0.00,,2013-03-10 10:52:00,
2013-03-10 06:01:00,42.0,39.0,29.87,NNW,329,0.0,2.0,89,0.01,,,0.01,,2013-03-10 11:01:00,
2013-03-10 06:12:00,42.0,39.0,29.87,NNW,329,0.0,2.0,89,0.01,,,0.01,,2013-03-10 11:12:00,
2013-03-10 06:21:00,43.0,40.0,29.86,WSW,254,0.0,4.0,88,0.01,,,0.01,,2013-03-10 11:21:00,
2013-03-10 06:32:00,43.0,38.0,29.85,East,85,1.0,4.0,84,0.01,,,0.01,,2013-03-10 11:32:00,
2013-03-10 06:42:00,43.0,38.0,29.85,East,85,1.0,4.0,84,0.01,,,0.01,,2013-03-10 11:42:00,
2013-03-10 06:52:00,42.0,39.0,29.85,East,85,0.0,1.0,88,0.01,,,0.01,,2013-03-10 11:52:00,
2013-03-10 07:01:00,42.0,39.0,29.85,East,89,1.0,2.0,89,0.00,,,0.01,,2013-03-10 12:01:00,
2013-03-10 07:11:00,42.0,39.0,29.85,East,89,1.0,2.0,89,0.00,,,0.01,,2013-03-10 12:11:00,
2013-03-10 07:21:00,43.0,39.0,29.85,ESE,105,0.0,1.0,87,0.00,,,0.01,,2013-03-10 12:21:00,
2013-03-10 07:31:00,43.0,39.0,29.84,SE,136,1.0,2.0,87,0.00,,,0.01,,2013-03-10 12:31:00,
2013-03-10 07:42:00,43.0,39.0,29.84,SE,136,1.0,2.0,87,0.00,,,0.01,,2013-03-10 12:42:00,
2013-03-10 07:51:00,43.0,39.0,29.85,SE,145,2.0,3.0,85,0.00,,,0.01,,2013-03-10 12:51:00,
2013-03-10 08:01:00,43.0,39.0,29.83,SE,129,1.0,3.0,87,0.00,,,0.01,,2013-03-10 13:01:00,
2013-03-10 08:11:00,43.0,39.0,29.83,SE,129,1.0,3.0,87,0.00,,,0.01,,2013-03-10 13:11:00,
2013-03-10 08:21:00,43.0,39.0,29.83,SSE,150,0.0,2.0,87,0.00,,,0.01,,2013-03-10 13:21:00,
2013-03-10 08:31:00,43.0,39.0,29.83,SSE,148,3.0,6.0,87,0.00,,,0.01,,2013-03-10 13:31:00,
2013-03-10 08:41:00,43.0,39.0,29.83,SSE,148,3.0,6.0,87,0.00,,,0.01,,2013-03-10 13:41:00,
2013-03-10 08:52:00,44.0,40.0,29.83,SSE,150,1.0,4.0,86,0.00,,,0.01,,2013-03-10 13:52:00,
2013-03-10 09:01:00,44.0,40.0,29.83,SSE,166,3.0,6.0,87,0.00,,,0.01,,2013-03-10 14:01:00,
2013-03-10 09:11:00,44.0,40.0,29.83,SSE,166,3.0,6.0,87,0.00,,,0.01,,2013-03-10 14:11:00,
2013-03-10 09:21:00,44.0,41.0,29.83,SE,140,2.0,4.0,88,0.01,,,0.02,,2013-03-10 14:21:00,
2013-03-10 09:32:00,44.0,40.0,29.83,SSE,159,2.0,5.0,87,0.01,,,0.02,,2013-03-10 14:32:00,
2013-03-10 09:41:00,44.0,40.0,29.83,SSE,159,2.0,5.0,87,0.01,,,0.02,,2013-03-10 14:41:00,
2013-03-10 09:51:00,44.0,40.0,29.83,SSE,168,3.0,6.0,87,0.01,,,0.02,,2013-03-10 14:51:00,
2013-03-10 10:01:00,45.0,41.0,29.83,SSE,165,3.0,6.0,85,0.00,,,0.02,,2013-03-10 15:01:00,
2013-03-10 10:11:00,45.0,41.0,29.83,SSE,165,3.0,6.0,85,0.00,,,0.02,,2013-03-10 15:11:00,
2013-03-10 10:21:00,46.0,41.0,29.83,SSE,155,4.0,6.0,84,0.00,,,0.02,,2013-03-10 15:21:00,
2013-03-10 10:32:00,46.0,41.0,29.83,SSE,168,3.0,7.0,84,0.00,,,0.02,,2013-03-10 15:32:00,
2013-03-10 10:42:00,46.0,41.0,29.83,SSE,168,3.0,7.0,84,0.00,,,0.02,,2013-03-10 15:42:00,
2013-03-10 10:51:00,47.0,42.0,29.82,ESE,116,5.0,8.0,84,0.00,,,0.02,,2013-03-10 15:51:00,
2013-03-10 11:01:00,47.0,42.0,29.82,SSE,166,4.0,8.0,83,0.00,,,0.02,,2013-03-10 16:01:00,
2013-03-10 11:12:00,47.0,42.0,29.82,SSE,166,4.0,8.0,83,0.00,,,0.02,,2013-03-10 16:12:00,
2013-03-10 11:21:00,48.0,43.0,29.81,SSE,162,4.0,7.0,83,0.00,,,0.02,,2013-03-10 16:21:00,
2013-03-10 11:32:00,49.0,43.0,29.80,South,173,4.0,9.0,81,0.00,,,0.02,,2013-03-10 16:32:00,
2013-03-10 11:41:00,49.0,43.0,29.80,South,173,4.0,9.0,81,0.00,,,0.02,,2013-03-10 16:41:00,
2013-03-10 11:51:00,50.0,44.0,29.79,SE,140,5.0,8.0,80,0.00,,,0.02,,2013-03-10 16:51:00,
2013-03-10 12:01:00,50.0,45.0,29.78,SSE,163,5.0,7.0,82,0.00,,,0.02,,2013-03-10 17:01:00,
2013-03-10 12:11:00,50.0,45.0,29.78,SSE,163,5.0,7.0,82,0.00,,,0.02,,2013-03-10 17:11:00,
2013-03-10 12:21:00,50.0,45.0,29.79,South,174,6.0,9.0,82,0.00,,,0.02,,2013-03-10 17:21:00,
2013-03-10 12:31:00,51.0,46.0,29.80,SE,146,5.0,8.0,82,0.00,,,0.02,,2013-03-10 17:31:00,
2013-03-10 12:41:00,51.0,46.0,29.80,SE,146,5.0,8.0,82,0.00,,,0.02,,2013-03-10 17:41:00,
2013-03-10 12:51:00,52.0,47.0,29.80,SE,144,5.0,8.0,84,0.00,,,0.02,,2013-03-10 17:51:00,
2013-03-10 13:01:00,57.0,49.0,29.80,SE,134,8.0,17.0,75,0.00,,,0.02,,2013-03-10 18:01:00,
2013-03-10 13:11:00,57.0,49.0,29.80,SE,134,8.0,17.0,75,0.00,,,0.02,,2013-03-10 18:11:00,
2013-03-10 13:21:00,58.0,50.0,29.77,South,171,9.0,14.0,74,0.00,,,0.02,,2013-03-10 18:21:00,
2013-03-10 13:32:00,59.0,50.0,29.77,SSE,165,8.0,15.0,72,0.00,,,0.02,,2013-03-10 18:32:00,
2013-03-10 13:42:00,59.0,50.0,29.77,SSE,165,8.0,15.0,72,0.00,,,0.02,,2013-03-10 18:42:00,
2013-03-10 13:52:00,59.0,50.0,29.75,South,178,8.0,17.0,71,0.00,,,0.02,,2013-03-10 18:52:00,
2013-03-10 14:01:00,59.0,49.0,29.74,SSW,192,9.0,14.0,70,0.00,,,0.02,,2013-03-10 19:01:00,
2013-03-10 14:11:00,59.0,49.0,29.74,SSW,192,9.0,14.0,70,0.00,,,0.02,,2013-03-10 19:11:00,
2013-03-10 14:21:00,60.0,49.0,29.73,SW,218,9.0,15.0,68,0.00,,,0.02,,2013-03-10 19:21:00,
2013-03-10 14:32:00,59.0,50.0,29.71,SSE,151,8.0,14.0,72,0.00,,,0.02,,2013-03-10 19:32:00,
2013-03-10 14:42:00,59.0,50.0,29.71,SSE,151,8.0,14.0,72,0.00,,,0.02,,2013-03-10 19:42:00,
2013-03-10 14:52:00,59.0,50.0,29.71,SE,141,7.0,13.0,73,0.00,,,0.02,,2013-03-10 19:52:00,
2013-03-10 15:02:00,59.0,50.0,29.70,South,183,8.0,13.0,72,0.00,,,0.02,,2013-03-10 20:02:00,
2013-03-10 15:12:00,59.0,50.0,29.70,South,183,8.0,13.0,72,0.00,,,0.02,,2013-03-10 20:12:00,
2013-03-10 15:22:00,59.0,50.0,29.71,SSE,149,8.0,12.0,73,0.00,,,0.02,,2013-03-10 20:22:00,
2013-03-10 15:32:00,58.0,49.0,29.70,SSE,150,9.0,13.0,72,0.00,,,0.02,,2013-03-10 20:32:00,
2013-03-10 15:42:00,58.0,49.0,29.70,SSE,150,9.0,13.0,72,0.00,,,0.02,,2013-03-10 20:42:00,
2013-03-10 15:52:00,57.0,48.0,29.70,SSE,157,9.0,14.0,72,0.00,,,0.02,,2013-03-10 20:52:00,
2013-03-10 16:02:00,57.0,48.0,29.69,SSE,157,8.0,14.0,72,0.00,,,0.02,,2013-03-10 21:02:00,
2013-03-10 16:12:00,57.0,48.0,29.69,SSE,157,8.0,14.0,72,0.00,,,0.02,,2013-03-10 21:12:00,
2013-03-10 16:22:00,56.0,47.0,29.69,SSE,152,6.0,11.0,73,0.00,,,0.02,,2013-03-10 21:22:00,
2013-03-10 16:32:00,56.0,48.0,29.67,ESE,121,8.0,13.0,74,0.00,,,0.02,,2013-03-10 21:32:00,
2013-03-10 16:42:00,56.0,48.0,29.67,ESE,121,8.0,13.0,74,0.00,,,0.02,,2013-03-10 21:42:00,
2013-03-10 16:52:00,56.0,47.0,29.67,SSE,150,7.0,11.0,73,0.00,,,0.02,,2013-03-10 21:52:00,
2013-03-10 17:02:00,56.0,47.0,29.67,SE,146,6.0,13.0,73,0.00,,,0.02,,2013-03-10 22:02:00,
2013-03-10 17:12:00,56.0,47.0,29.67,SE,146,6.0,13.0,73,0.00,,,0.02,,2013-03-10 22:12:00,
2013-03-10 17:22:00,56.0,48.0,29.66,SSE,158,5.0,12.0,74,0.00,,,0.02,,2013-03-10 22:22:00,
2013-03-10 17:32:00,56.0,48.0,29.66,SSE,161,6.0,11.0,74,0.00,,,0.02,,2013-03-10 22:32:00,
2013-03-10 17:43:00,56.0,48.0,29.66,SSE,161,6.0,11.0,74,0.00,,,0.02,,2013-03-10 22:43:00,
2013-03-10 17:52:00,56.0,47.0,29.67,ESE,121,7.0,12.0,73,0.00,,,0.02,,2013-03-10 22:52:00,
2013-03-10 18:03:00,55.0,47.0,29.67,South,179,6.0,10.0,74,0.00,,,0.02,,2013-03-10 23:03:00,
2013-03-10 18:12:00,55.0,47.0,29.67,South,179,6.0,10.0,74,0.00,,,0.02,,2013-03-10 23:12:00,
2013-03-10 18:23:00,56.0,47.0,29.68,SSE,164,5.0,9.0,71,0.00,,,0.02,,2013-03-10 23:23:00,
2013-03-10 18:32:00,56.0,47.0,29.69,SSW,202,7.0,12.0,72,0.00,,,0.02,,2013-03-10 23:32:00,
2013-03-10 18:42:00,56.0,47.0,29.69,SSW,202,7.0,12.0,72,0.00,,,0.02,,2013-03-10 23:42:00,
2013-03-10 18:52:00,56.0,47.0,29.68,SSW,210,11.0,19.0,73,0.01,,,0.03,,2013-03-10 23:52:00,
2013-03-10 19:02:00,56.0,49.0,29.67,SSW,196,9.0,22.0,76,0.02,,,0.04,,2013-03-11 00:02:00,
2013-03-10 19:12:00,56.0,49.0,29.67,SSW,196,9.0,22.0,76,0.02,,,0.04,,2013-03-11 00:12:00,
2013-03-10 19:23:00,55.0,49.0,29.65,SSW,199,9.0,19.0,81,0.02,,,0.04,,2013-03-11 00:23:00,
2013-03-10 19:33:00,54.0,49.0,29.66,SSE,156,7.0,17.0,83,0.02,,,0.04,,2013-03-11 00:33:00,
2013-03-10 19:43:00,54.0,49.0,29.66,SSE,156,7.0,17.0,83,0.02,,,0.04,,2013-03-11 00:43:00,
2013-03-10 19:52:00,54.0,50.0,29.67,South,181,7.0,15.0,85,0.01,,,0.04,,2013-03-11 00:52:00,
2013-03-10 20:02:00,53.0,49.0,29.67,SSE,149,7.0,12.0,86,0.00,,,0.04,,2013-03-11 01:02:00,
2013-03-10 20:13:00,53.0,49.0,29.67,SSE,149,7.0,12.0,86,0.00,,,0.04,,2013-03-11 01:13:00,
2013-03-10 20:23:00,54.0,50.0,29.67,South,170,6.0,13.0,86,0.00,,,0.04,,2013-03-11 01:23:00,
2013-03-10 20:32:00,53.0,49.0,29.67,South,181,8.0,15.0,86,0.00,,,0.04,,2013-03-11 01:32:00,
2013-03-10 20:42:00,53.0,49.0,29.67,South,181,8.0,15.0,86,0.00,,,0.04,,2013-03-11 01:42:00,
2013-03-10 20:52:00,54.0,50.0,29.67,South,171,9.0,16.0,86,0.00,,,0.04,,2013-03-11 01:52:00,
2013-03-10 21:02:00,54.0,50.0,29.67,South,180,9.0,17.0,85,0.00,,,0.04,,2013-03-11 02:02:00,
2013-03-10 21:12:00,54.0,50.0,29.67,South,180,9.0,17.0,85,0.00,,,0.04,,2013-03-11 02:12:00,
2013-03-10 21:22:00,54.0,49.0,29.67,South,175,9.0,17.0,84,0.00,,,0.04,,2013-03-11 02:22:00,
2013-03-10 21:32:00,54.0,49.0,29.67,SSW,198,12.0,21.0,84,0.00,,,0.04,,2013-03-11 02:32:00,
2013-03-10 21:42:00,54.0,49.0,29.67,SSW,198,12.0,21.0,84,0.00,,,0.04,,2013-03-11 02:42:00,
2013-03-10 21:52:00,54.0,50.0,29.67,SSE,163,8.0,16.0,85,0.00,,,0.04,,2013-03-11 02:52:00,
2013-03-10 22:02:00,54.0,50.0,29.67,South,184,8.0,15.0,87,0.00,,,0.04,,2013-03-11 03:02:00,
2013-03-10 22:12:00,54.0,50.0,29.67,South,184,8.0,15.0,87,0.00,,,0.04,,2013-03-11 03:12:00,
2013-03-10 22:22:00,54.0,50.0,29.67,SSW,209,9.0,17.0,87,0.00,,,0.04,,2013-03-11 03:22:00,
2013-03-10 22:32:00,53.0,50.0,29.67,SSW,213,6.0,14.0,88,0.00,,,0.04,,2013-03-11 03:32:00,
2013-03-10 22:42:00,53.0,50.0,29.67,SSW,213,6.0,14.0,88,0.00,,,0.04,,2013-03-11 03:42:00,
2013-03-10 22:52:00,53.0,50.0,29.68,WSW,243,2.0,8.0,89,0.00,,,0.04,,2013-03-11 03:52:00,
2013-03-10 23:02:00,52.0,49.0,29.67,SSW,197,4.0,9.0,91,0.00,,,0.04,,2013-03-11 04:02:00,
2013-03-10 23:12:00,52.0,49.0,29.67,SSW,197,4.0,9.0,91,0.00,,,0.04,,2013-03-11 04:12:00,
2013-03-10 23:22:00,52.0,50.0,29.67,SW,219,3.0,10.0,92,0.00,,,0.04,,2013-03-11 04:22:00,
2013-03-10 23:32:00,52.0,50.0,29.67,SSW,209,7.0,12.0,92,0.00,,,0.04,,2013-03-11 04:32:00,
2013-03-10 23:42:00,52.0,50.0,29.67,SSW,209,7.0,12.0,92,0.00,,,0.04,,2013-03-11 04:42:00,
2013-03-10 23:52:00,52.0,50.0,29.67,SW,223,5.0,10.0,92,0.00,,,0.04,,2013-03-11 04:52:00,